Date,TemperatureHighF,TemperatureAvgF,TemperatureLowF,DewpointHighF,DewpointAvgF,DewpointLowF,HumidityHigh,HumidityAvg,HumidityLow,PressureMaxIn,PressureMinIn,WindSpeedMaxMPH,WindSpeedAvgMPH,GustSpeedMaxMPH,PrecipitationSumIn
2013-3-1,18,9,5,8,4,0,87,80,65,30.53,29.95,7,1,7,0.00
2013-3-2,18,10,4,12,6,0,95,82,75,30.68,30.53,7,1,7,0.00
2013-3-3,25,15,6,16,10,2,89,79,66,30.93,30.68,5,0,5,0.00
2013-3-4,30,21,12,18,12,7,85,68,55,30.97,30.78,6,0,6,0.08
2013-3-5,32,24,17,17,11,8,71,58,48,30.78,30.41,5,1,5,0.03
2013-3-6,21,17,12,9,6,3,74,63,55,30.42,30.36,5,1,6,0.00
2013-3-7,39,30,17,19,15,9,70,55,43,30.36,29.90,21,5,21,0.01
2013-3-8,41,37,32,25,20,16,60,51,45,30.07,29.94,13,3,13,0.16
2013-3-9,36,28,19,26,21,13,89,73,61,30.48,30.07,16,2,16,0.05
2013-3-10,26,20,13,24,15,7,92,80,67,30.80,30.48,13,2,15,0.00
2013-3-11,25,16,10,14,9,4,88,74,62,31.11,30.80,15,1,15,0.00
2013-3-12,22,14,7,6,1,-6,74,56,34,31.11,30.87,11,2,11,0.00
2013-3-13,14,9,4,-1,-5,-8,58,51,45,30.87,30.76,23,4,23,0.00
2013-3-14,13,3,-7,-6,-13,-20,53,47,40,30.78,30.70,22,10,28,0.00
2013-3-15,19,10,4,-4,-10,-13,49,40,31,30.72,30.47,21,7,21,0.00
2013-3-16,22,14,7,3,-3,-10,53,45,40,30.70,30.52,17,5,17,0.00
2013-3-17,16,10,3,1,-2,-5,76,58,48,30.81,30.67,7,1,7,0.00
2013-3-18,17,8,0,2,-3,-6,77,62,49,30.67,30.53,17,2,17,0.00
2013-3-19,17,8,1,1,-5,-10,67,56,41,30.66,30.56,16,3,16,0.00
2013-3-20,7,1,-7,-2,-8,-14,76,65,56,30.57,30.46,9,2,9,0.00
2013-3-21,17,8,0,8,1,-4,84,75,53,30.65,30.53,10,2,10,0.00
2013-3-22,28,19,12,12,5,-2,75,52,45,30.56,30.18,18,4,18,0.00
2013-3-23,19,3,-4,14,-6,-12,83,67,49,30.59,30.19,22,4,22,0.00
2013-3-24,12,4,-6,4,-5,-15,84,67,51,30.58,30.29,7,1,7,0.00
2013-3-25,9,3,-1,3,-2,-6,91,80,71,30.29,30.14,18,2,18,0.00
2013-3-26,6,-2,-10,-6,-10,-18,79,68,54,30.75,30.29,18,4,18,0.00
2013-3-27,6,-3,-14,-7,-12,-19,80,65,53,30.82,30.69,11,2,11,0.00
2013-3-28,28,16,1,10,1,-8,67,53,41,30.69,30.41,9,2,9,0.04
2013-3-29,40,31,23,21,14,8,56,49,40,30.41,30.33,11,2,11,0.19
2013-3-30,37,28,17,19,15,10,82,58,44,30.67,30.37,8,1,8,0.03
2013-3-31,36,30,23,27,21,15,92,69,58,30.72,30.61,8,1,8,0.01